createdAt,value
2022-09-12T00:02:11.277Z,99242.09
2022-09-12T00:04:45.535Z,99235.95
2022-09-12T00:07:18.653Z,99234.91
2022-09-12T00:09:52.299Z,99233.87
2022-09-12T00:12:25.177Z,99229.22
2022-09-12T00:14:58.100Z,99223.58
2022-09-12T00:17:31.626Z,99224.25
2022-09-12T00:20:08.338Z,99231.40
2022-09-12T00:22:42.340Z,99229.02
2022-09-12T00:25:15.674Z,99227.98
2022-09-12T00:27:50.150Z,99223.75
2022-09-12T00:30:23.212Z,99225.25
2022-09-12T00:32:58.617Z,99229.66
2022-09-12T00:35:31.646Z,99224.20
2022-09-12T00:38:05.185Z,99217.06
2022-09-12T00:40:40.436Z,99208.36
2022-09-12T00:43:33.561Z,99207.83
2022-09-12T00:46:26.334Z,99197.58
2022-09-12T00:49:06.287Z,99194.13
2022-09-12T00:51:40.829Z,99199.94
2022-09-12T00:54:17.613Z,99194.94
2022-09-12T00:56:51.119Z,99196.47
2022-09-12T00:59:29.707Z,99193.55
2022-09-12T01:02:03.035Z,99191.27
2022-09-12T01:04:36.424Z,99197.05
2022-09-12T01:07:10.273Z,99192.45
2022-09-12T01:09:45.334Z,99194.68
2022-09-12T01:12:18.080Z,99191.22
2022-09-12T01:14:51.806Z,99195.31
2022-09-12T01:17:24.753Z,99193.27
2022-09-12T01:20:35.174Z,99193.77
2022-09-12T01:23:33.842Z,99195.98
2022-09-12T01:26:38.729Z,99197.41
2022-09-12T01:29:25.694Z,99195.55
2022-09-12T01:32:28.206Z,99190.82
2022-09-12T01:35:41.796Z,99192.87
2022-09-12T01:38:52.269Z,99194.42
2022-09-12T01:41:54.941Z,99193.44
2022-09-12T01:44:39.211Z,99201.99
2022-09-12T01:47:24.518Z,99195.22
2022-09-12T01:50:12.301Z,99190.12
2022-09-12T01:53:04.970Z,99201.55
2022-09-12T01:55:54.208Z,99199.55
2022-09-12T01:58:31.418Z,99198.38
2022-09-12T02:01:15.963Z,99194.15
2022-09-12T02:04:11.289Z,99193.34
2022-09-12T02:06:54.144Z,99195.93
2022-09-12T02:09:56.120Z,99195.11
2022-09-12T02:12:33.643Z,99185.56
2022-09-12T02:15:09.041Z,99188.97
2022-09-12T02:17:45.304Z,99182.83
2022-09-12T02:20:47.069Z,99180.11
2022-09-12T02:22:59.999Z,99182.33
2022-09-12T02:25:33.754Z,99180.78
2022-09-12T02:28:14.338Z,99187.74
2022-09-12T02:31:02.125Z,99184.50
2022-09-12T02:33:52.349Z,99185.87
2022-09-12T02:36:50.499Z,99184.16
2022-09-12T02:39:24.487Z,99184.55
2022-09-12T02:41:59.232Z,99191.20
2022-09-12T02:44:32.843Z,99184.24
2022-09-12T02:47:17.527Z,99189.20
2022-09-12T02:49:51.168Z,99193.16
2022-09-12T02:52:24.853Z,99187.42
2022-09-12T02:54:58.513Z,99199.03
2022-09-12T02:57:32.838Z,99199.20
2022-09-12T03:00:07.207Z,99194.97
2022-09-12T03:02:53.814Z,99196.70
2022-09-12T03:05:37.423Z,99192.29
2022-09-12T03:08:42.458Z,99196.03
2022-09-12T03:11:32.932Z,99191.25
2022-09-12T03:14:20.069Z,99191.57
2022-09-12T03:17:12.901Z,99193.97
2022-09-12T03:20:14.876Z,99191.25
2022-09-12T03:23:03.837Z,99191.25
2022-09-12T03:25:44.953Z,99192.94
2022-09-12T03:28:18.597Z,99190.53
2022-09-12T03:30:53.728Z,99189.84
2022-09-12T03:33:48.288Z,99192.39
2022-09-12T03:36:25.097Z,99195.30
2022-09-12T03:38:58.300Z,99194.30
2022-09-12T03:41:31.166Z,99198.75
2022-09-12T03:44:05.943Z,99192.30
2022-09-12T03:46:37.989Z,99202.92
2022-09-12T03:49:11.254Z,99205.20
2022-09-12T03:51:45.958Z,99214.67
2022-09-12T03:54:18.902Z,99218.17
2022-09-12T03:56:51.783Z,99219.27
2022-09-12T03:59:24.914Z,99221.72
2022-09-12T04:01:59.314Z,99227.23
2022-09-12T04:04:32.328Z,99226.27
2022-09-12T04:07:05.290Z,99233.44
2022-09-12T04:09:38.287Z,99232.79
2022-09-12T04:12:11.212Z,99232.47
2022-09-12T04:14:44.891Z,99244.41
2022-09-12T04:17:17.700Z,99240.99
2022-09-12T04:19:51.148Z,99246.75
2022-09-12T04:22:24.461Z,99244.87
2022-09-12T04:24:57.837Z,99247.27
2022-09-12T04:27:31.237Z,99243.02
2022-09-12T04:30:04.416Z,99244.39
2022-09-12T04:32:38.199Z,99246.78
2022-09-12T04:35:12.686Z,99247.11
2022-09-12T04:37:46.611Z,99245.08
2022-09-12T04:40:20.041Z,99247.09
2022-09-12T04:42:53.171Z,99249.48
2022-09-12T04:45:26.800Z,99250.52
2022-09-12T04:48:00.218Z,99253.90
2022-09-12T04:50:35.027Z,99252.37
2022-09-12T04:53:08.014Z,99256.64
2022-09-12T04:55:41.355Z,99258.16
2022-09-12T04:58:14.363Z,99266.48
2022-09-12T05:00:48.395Z,99256.95
2022-09-12T05:03:21.076Z,99267.17
2022-09-12T05:05:56.426Z,99267.17
2022-09-12T05:08:29.219Z,99268.53
2022-09-12T05:11:11.740Z,99263.92
2022-09-12T05:13:45.236Z,99254.75
2022-09-12T05:16:21.905Z,99261.39
2022-09-12T05:18:54.939Z,99269.71
2022-09-12T05:21:28.438Z,99259.69
2022-09-12T05:24:02.856Z,99260.38
2022-09-12T05:26:57.541Z,99262.27
2022-09-12T05:29:34.845Z,99260.70
2022-09-12T05:32:09.807Z,99257.81
2022-09-12T05:34:42.221Z,99254.06
2022-09-12T05:37:16.316Z,99255.41
2022-09-12T05:39:50.447Z,99254.58
2022-09-12T05:42:23.785Z,99253.39
2022-09-12T05:44:58.901Z,99255.24
2022-09-12T05:47:32.678Z,99258.02
2022-09-12T05:50:07.873Z,99255.63
2022-09-12T05:52:40.937Z,99259.02
2022-09-12T05:55:24.713Z,99257.66
2022-09-12T05:57:57.730Z,99257.30
2022-09-12T06:00:33.527Z,99257.78
2022-09-12T06:03:25.617Z,99250.11
2022-09-12T06:05:58.464Z,99250.60
2022-09-12T06:08:33.063Z,99253.81
2022-09-12T06:11:06.231Z,99248.67
2022-09-12T06:13:41.588Z,99255.67
2022-09-12T06:16:18.298Z,99249.36
2022-09-12T06:18:53.956Z,99248.66
2022-09-12T06:21:28.870Z,99252.88
2022-09-12T06:24:04.224Z,99254.22
2022-09-12T06:26:39.750Z,99251.31
2022-09-12T06:29:13.692Z,99253.53
2022-09-12T06:31:47.230Z,99255.07
2022-09-12T06:34:20.290Z,99255.05
2022-09-12T06:36:54.463Z,99255.66
2022-09-12T06:39:28.351Z,99252.33
2022-09-12T06:42:01.215Z,99258.77
2022-09-12T06:44:35.157Z,99254.42
2022-09-12T06:47:10.031Z,99262.22
2022-09-12T06:49:42.859Z,99258.12
2022-09-12T06:52:15.925Z,99255.67
2022-09-12T06:54:50.071Z,99258.01
2022-09-12T06:57:23.516Z,99263.10
2022-09-12T06:59:56.497Z,99268.38
2022-09-12T07:02:30.743Z,99264.43
2022-09-12T07:05:03.659Z,99270.89
2022-09-12T07:07:38.507Z,99269.52
2022-09-12T07:10:12.608Z,99277.42
2022-09-12T07:12:46.094Z,99276.89
2022-09-12T07:15:19.364Z,99279.94
2022-09-12T07:17:52.899Z,99279.06
2022-09-12T07:20:26.026Z,99279.67
2022-09-12T07:22:59.246Z,99278.44
2022-09-12T07:25:32.441Z,99280.22
2022-09-12T07:28:05.969Z,99287.41
2022-09-12T07:30:39.855Z,99284.02
2022-09-12T07:33:12.822Z,99284.86
2022-09-12T07:35:45.928Z,99283.73
2022-09-12T07:38:19.042Z,99279.50
2022-09-12T07:40:52.523Z,99271.98
2022-09-12T07:43:26.401Z,99278.44
2022-09-12T07:45:59.616Z,99270.03
2022-09-12T07:48:32.731Z,99270.47
2022-09-12T07:51:07.878Z,99264.43
2022-09-12T07:53:43.721Z,99266.46
2022-09-12T07:56:17.803Z,99274.53
2022-09-12T07:58:50.950Z,99273.48
2022-09-12T08:01:25.350Z,99273.14
2022-09-12T08:04:21.861Z,99272.90
2022-09-12T08:06:55.002Z,99270.06
2022-09-12T08:09:28.726Z,99272.89
2022-09-12T08:12:03.350Z,99274.54
2022-09-12T08:14:35.886Z,99267.73
2022-09-12T08:17:10.014Z,99268.17
2022-09-12T08:19:45.215Z,99269.56
2022-09-12T08:22:20.232Z,99270.73
2022-09-12T08:24:53.981Z,99259.86
2022-09-12T08:27:27.096Z,99268.67
2022-09-12T08:30:00.902Z,99267.84
2022-09-12T08:32:35.546Z,99266.23
2022-09-12T08:35:09.714Z,99264.95
2022-09-12T08:37:42.845Z,99267.53
2022-09-12T08:40:20.734Z,99266.20
2022-09-12T08:43:18.109Z,99256.36
2022-09-12T08:46:01.635Z,99261.03
2022-09-12T08:48:35.301Z,99258.09
2022-09-12T08:51:12.517Z,99253.21
2022-09-12T08:53:47.733Z,99251.80
2022-09-12T08:56:21.106Z,99250.24
2022-09-12T08:58:54.916Z,99258.53
2022-09-12T09:01:42.774Z,99262.75
2022-09-12T09:04:51.873Z,99262.44
2022-09-12T09:07:45.964Z,99253.10
2022-09-12T09:10:52.044Z,99250.66
2022-09-12T09:14:03.047Z,99255.84
2022-09-12T09:16:42.834Z,99253.91
2022-09-12T09:19:24.216Z,99254.89
2022-09-12T09:22:24.823Z,99259.08
2022-09-12T09:25:01.230Z,99261.45
2022-09-12T09:27:41.770Z,99260.23
2022-09-12T09:30:20.820Z,99264.67
2022-09-12T09:32:58.570Z,99264.17
2022-09-12T09:35:50.802Z,99261.00
2022-09-12T09:38:50.797Z,99267.65
2022-09-12T09:42:09.606Z,99267.72
2022-09-12T09:44:45.274Z,99269.72
2022-09-12T09:47:19.985Z,99267.19
2022-09-12T09:49:54.096Z,99266.09
2022-09-12T09:52:31.201Z,99266.79
2022-09-12T09:55:05.515Z,99266.05
2022-09-12T09:57:42.099Z,99271.41
2022-09-12T10:00:31.841Z,99272.19
2022-09-12T10:03:15.289Z,99275.20
2022-09-12T10:05:59.429Z,99272.34
2022-09-12T10:08:35.720Z,99277.51
2022-09-12T10:11:22.925Z,99280.63
2022-09-12T10:14:02.025Z,99284.66
2022-09-12T10:19:40.634Z,99282.89
2022-09-12T10:22:34.308Z,99282.26
2022-09-12T10:25:09.062Z,99283.35
2022-09-12T10:27:43.952Z,99283.56
2022-09-12T10:30:20.946Z,99285.06
2022-09-12T10:32:55.762Z,99285.95
2022-09-12T10:35:34.054Z,99284.91
2022-09-12T10:38:28.251Z,99287.25
2022-09-12T10:41:11.276Z,99283.09
2022-09-12T10:43:44.920Z,99289.73
2022-09-12T10:46:23.082Z,99287.45
2022-09-12T10:49:22.737Z,99297.77
2022-09-12T10:51:56.744Z,99300.55
2022-09-12T10:54:30.502Z,99304.33
2022-09-12T10:57:35.542Z,99303.30
2022-09-12T11:00:18.092Z,99306.45
2022-09-12T11:03:13.897Z,99304.92
2022-09-12T11:06:03.508Z,99309.39
2022-09-12T11:08:56.521Z,99312.16
2022-09-12T11:11:59.445Z,99314.89
2022-09-12T11:15:01.837Z,99320.36
2022-09-12T11:17:54.094Z,99322.81
2022-09-12T11:20:58.941Z,99320.95
2022-09-12T11:24:02.619Z,99322.90
2022-09-12T11:26:46.360Z,99323.48
2022-09-12T11:29:52.037Z,99319.25
2022-09-12T11:32:56.035Z,99321.30
2022-09-12T11:35:34.674Z,99323.98
2022-09-12T11:38:33.614Z,99325.89
2022-09-12T11:41:12.861Z,99318.78
2022-09-12T11:44:04.551Z,99317.92
2022-09-12T11:46:46.655Z,99324.38
2022-09-12T11:49:51.205Z,99325.39
2022-09-12T11:52:29.712Z,99326.53
2022-09-12T11:55:15.503Z,99325.31
2022-09-12T11:58:00.656Z,99327.36
2022-09-12T12:00:57.240Z,99327.50
2022-09-12T12:03:46.654Z,99329.72
2022-09-12T12:06:35.515Z,99327.67
2022-09-12T12:09:08.835Z,99334.13
2022-09-12T12:11:57.310Z,99330.69
2022-09-12T12:14:44.101Z,99331.87
2022-09-12T12:17:22.010Z,99337.14
2022-09-12T12:20:07.682Z,99336.28
2022-09-12T12:22:39.701Z,99335.91
2022-09-12T12:25:22.368Z,99340.43
2022-09-12T12:28:02.100Z,99340.05
2022-09-12T12:30:58.380Z,99338.64
2022-09-12T12:33:36.772Z,99340.02
2022-09-12T12:36:14.548Z,99338.59
2022-09-12T12:38:48.048Z,99336.13
2022-09-12T12:41:25.655Z,99337.13
2022-09-12T12:43:58.960Z,99338.16
2022-09-12T12:46:32.067Z,99337.25
2022-09-12T12:49:24.897Z,99332.27
2022-09-12T12:52:02.907Z,99337.02
2022-09-12T12:54:46.235Z,99335.33
2022-09-12T12:57:33.625Z,99335.19
2022-09-12T13:00:16.770Z,99344.45
2022-09-12T13:02:59.977Z,99338.19
2022-09-12T13:05:41.855Z,99346.43
2022-09-12T13:08:29.246Z,99339.29
2022-09-12T13:11:12.512Z,99341.56
2022-09-12T13:13:54.541Z,99339.33
2022-09-12T13:16:59.013Z,99348.57
2022-09-12T13:19:35.449Z,99338.69
2022-09-12T13:22:11.156Z,99342.74
2022-09-12T13:24:52.071Z,99340.02
2022-09-12T13:27:26.920Z,99342.19
2022-09-12T13:30:17.073Z,99339.09
2022-09-12T13:32:50.354Z,99342.47
2022-09-12T13:35:38.263Z,99341.78
2022-09-12T13:38:32.154Z,99339.55
2022-09-12T13:41:18.459Z,99342.28
2022-09-12T13:43:51.495Z,99339.59
2022-09-12T13:46:30.710Z,99339.78
2022-09-12T13:49:09.424Z,99334.69
2022-09-12T13:51:42.835Z,99344.75
2022-09-12T13:54:23.827Z,99350.20
2022-09-12T13:56:54.933Z,99345.75
2022-09-12T13:59:28.877Z,99349.20
2022-09-12T14:02:02.017Z,99346.98
2022-09-12T14:04:52.981Z,99347.16
2022-09-12T14:07:26.529Z,99348.16
2022-09-12T14:10:02.032Z,99343.92
2022-09-12T14:12:43.720Z,99347.84
2022-09-12T14:15:24.934Z,99348.57
2022-09-12T14:18:01.728Z,99349.44
2022-09-12T14:20:39.647Z,99351.17
2022-09-12T14:23:33.984Z,99350.71
2022-09-12T14:26:08.419Z,99355.86
2022-09-12T14:28:50.381Z,99355.75
2022-09-12T14:31:26.929Z,99352.89
2022-09-12T14:34:16.473Z,99359.42
2022-09-12T14:37:11.949Z,99356.38
2022-09-12T14:39:45.966Z,99364.10
2022-09-12T14:42:22.423Z,99355.48
2022-09-12T14:45:06.238Z,99357.89
2022-09-12T14:47:42.467Z,99351.78
2022-09-12T14:50:40.422Z,99349.41
2022-09-12T14:53:23.755Z,99357.62
2022-09-12T14:56:14.107Z,99350.66
2022-09-12T14:58:48.117Z,99352.20
2022-09-12T15:01:24.934Z,99357.66
2022-09-12T15:03:58.349Z,99355.61
2022-09-12T15:06:37.133Z,99357.00
2022-09-12T15:09:14.314Z,99357.33
2022-09-12T15:11:47.760Z,99355.64
2022-09-12T15:14:40.159Z,99362.13
2022-09-12T15:17:13.116Z,99357.71
2022-09-12T15:19:46.652Z,99357.56
2022-09-12T15:22:21.106Z,99357.38
2022-09-12T15:24:55.316Z,99353.47
2022-09-12T15:27:28.312Z,99358.39
2022-09-12T15:30:01.319Z,99357.88
2022-09-12T15:32:35.327Z,99356.70
2022-09-12T15:35:25.775Z,99355.34
2022-09-12T15:37:58.997Z,99357.20
2022-09-12T15:40:32.874Z,99356.88
2022-09-12T15:43:07.193Z,99357.20
2022-09-12T15:45:40.799Z,99356.38
2022-09-12T15:48:15.300Z,99366.06
2022-09-12T15:51:12.364Z,99365.92
2022-09-12T15:53:43.761Z,99363.84
2022-09-12T15:56:21.413Z,99363.52
2022-09-12T15:58:59.563Z,99364.88
2022-09-12T16:01:30.305Z,99364.55
2022-09-12T16:04:04.747Z,99366.09
2022-09-12T16:06:38.082Z,99372.05
2022-09-12T16:09:16.118Z,99366.27
2022-09-12T16:11:47.407Z,99379.55
2022-09-12T16:14:21.044Z,99378.18
2022-09-12T16:16:56.626Z,99377.17
2022-09-12T16:22:13.505Z,99375.28
2022-09-12T16:24:46.515Z,99379.05
2022-09-12T16:27:20.017Z,99378.18
2022-09-12T16:29:53.128Z,99377.03
2022-09-12T16:32:46.951Z,99379.93
2022-09-12T16:35:21.148Z,99379.06
2022-09-12T16:37:53.968Z,99384.70
2022-09-12T16:40:37.721Z,99384.88
2022-09-12T16:43:10.926Z,99377.55
2022-09-12T16:45:44.842Z,99388.14
2022-09-12T16:48:18.241Z,99388.14
2022-09-12T16:50:58.861Z,99386.09
2022-09-12T16:53:33.947Z,99389.86
2022-09-12T16:56:07.573Z,99391.58
2022-09-12T16:58:42.336Z,99391.72
2022-09-12T17:01:18.726Z,99390.72
2022-09-12T17:03:58.272Z,99397.53
2022-09-12T17:06:31.988Z,99396.52
2022-09-12T17:09:05.822Z,99393.44
2022-09-12T17:11:39.801Z,99392.78
2022-09-12T17:14:14.744Z,99393.97
2022-09-12T17:16:51.874Z,99395.66
2022-09-12T17:22:13.278Z,99392.09
2022-09-12T17:25:06.165Z,99390.89
2022-09-12T17:27:41.029Z,99389.86
2022-09-12T17:30:15.005Z,99399.25
2022-09-12T17:32:48.072Z,99394.97
2022-09-12T17:35:21.499Z,99400.80
2022-09-12T17:37:55.039Z,99407.28
2022-09-12T17:40:55.744Z,99404.90
2022-09-12T17:43:04.241Z,99397.91
2022-09-12T17:45:37.577Z,99393.13
2022-09-12T17:48:12.992Z,99393.67
2022-09-12T17:50:46.924Z,99388.55
2022-09-12T17:53:20.468Z,99395.69
2022-09-12T17:55:54.432Z,99394.86
2022-09-12T17:58:29.810Z,99395.03
2022-09-12T18:01:26.385Z,99395.38
2022-09-12T18:04:01.924Z,99395.73
2022-09-12T18:06:37.164Z,99396.06
2022-09-12T18:09:11.873Z,99390.64
2022-09-12T18:11:44.942Z,99393.00
2022-09-12T18:14:19.781Z,99393.88
2022-09-12T18:16:52.441Z,99394.38
2022-09-12T18:19:26.905Z,99389.97
2022-09-12T18:21:59.794Z,99393.36
2022-09-12T18:24:34.333Z,99390.63
2022-09-12T18:27:28.111Z,99384.00
2022-09-12T18:30:20.607Z,99386.23
2022-09-12T18:32:39.475Z,99387.44
2022-09-12T18:35:13.158Z,99380.44
2022-09-12T18:37:46.649Z,99378.58
2022-09-12T18:40:21.395Z,99379.08
2022-09-12T18:42:55.599Z,99383.53
2022-09-12T18:45:29.270Z,99386.08
2022-09-12T18:48:05.465Z,99383.16
2022-09-12T18:50:39.170Z,99387.08
2022-09-12T18:53:12.627Z,99386.56
2022-09-12T18:55:45.629Z,99392.02
2022-09-12T18:58:18.740Z,99385.38
2022-09-12T19:00:52.400Z,99388.25
2022-09-12T19:03:25.491Z,99385.89
2022-09-12T19:05:59.284Z,99390.63
2022-09-12T19:08:33.486Z,99391.34
2022-09-12T19:11:06.550Z,99386.56
2022-09-12T19:13:41.744Z,99387.92
2022-09-12T19:16:20.585Z,99387.25
2022-09-12T19:18:54.155Z,99382.48
2022-09-12T19:21:48.910Z,99381.79
2022-09-12T19:24:22.708Z,99381.44
2022-09-12T19:26:56.299Z,99386.22
2022-09-12T19:29:29.347Z,99382.14
2022-09-12T19:32:02.519Z,99374.80
2022-09-12T19:34:35.352Z,99375.84
2022-09-12T19:37:09.163Z,99375.84
2022-09-12T19:39:44.496Z,99373.30
2022-09-12T19:42:17.762Z,99364.78
2022-09-12T19:44:52.331Z,99361.04
2022-09-12T19:47:28.862Z,99360.21
2022-09-12T19:50:01.688Z,99360.71
2022-09-12T19:52:34.859Z,99360.55
2022-09-12T19:55:09.185Z,99359.53
2022-09-12T19:57:42.182Z,99364.13
2022-09-12T20:00:16.154Z,99360.22
2022-09-12T20:02:53.974Z,99360.23
2022-09-12T20:05:27.324Z,99358.54
2022-09-12T20:08:00.634Z,99359.70
2022-09-12T20:10:34.550Z,99357.52
2022-09-12T20:13:09.244Z,99363.47
2022-09-12T20:15:42.324Z,99359.72
2022-09-12T20:18:15.812Z,99361.41
2022-09-12T20:20:48.999Z,99359.39
2022-09-12T20:23:24.085Z,99357.01
2022-09-12T20:26:00.946Z,99358.70
2022-09-12T20:28:35.080Z,99354.95
2022-09-12T20:31:15.706Z,99352.23
2022-09-12T20:33:52.148Z,99355.48
2022-09-12T20:36:24.932Z,99353.44
2022-09-12T20:39:02.641Z,99359.91
2022-09-12T20:41:37.739Z,99359.39
2022-09-12T20:44:11.379Z,99352.75
2022-09-12T20:46:44.842Z,99364.17
2022-09-12T20:49:17.752Z,99361.45
2022-09-12T20:51:52.709Z,99354.95
2022-09-12T20:54:26.140Z,99360.89
2022-09-12T20:56:59.147Z,99358.67
2022-09-12T20:59:35.309Z,99354.25
2022-09-12T21:02:08.712Z,99353.39
2022-09-12T21:04:41.924Z,99354.25
2022-09-12T21:07:15.863Z,99351.54
2022-09-12T21:09:49.520Z,99352.91
2022-09-12T21:12:23.171Z,99349.32
2022-09-12T21:14:57.555Z,99348.45
2022-09-12T21:17:30.476Z,99351.17
2022-09-12T21:20:07.982Z,99350.84
2022-09-12T21:22:39.423Z,99348.83
2022-09-12T21:25:14.254Z,99349.83
2022-09-12T21:27:48.272Z,99351.36
2022-09-12T21:30:21.231Z,99353.58
2022-09-12T21:32:54.544Z,99347.80
2022-09-12T21:35:28.538Z,99350.52
2022-09-12T21:38:01.833Z,99345.58
2022-09-12T21:40:34.999Z,99343.36
2022-09-12T21:43:12.347Z,99341.00
2022-09-12T21:45:43.347Z,99337.75
2022-09-12T21:48:17.335Z,99338.78
2022-09-12T21:50:53.940Z,99335.55
2022-09-12T21:53:28.046Z,99334.52
2022-09-12T21:56:08.953Z,99333.16
2022-09-12T21:58:42.283Z,99330.61
2022-09-12T22:01:16.326Z,99329.41
2022-09-12T22:03:50.367Z,99324.33
2022-09-12T22:06:25.092Z,99328.41
2022-09-12T22:08:58.821Z,99325.67
2022-09-12T22:11:32.063Z,99338.09
2022-09-12T22:14:07.521Z,99338.09
2022-09-12T22:16:41.868Z,99333.52
2022-09-12T22:19:15.440Z,99330.79
2022-09-12T22:22:06.952Z,99328.56
2022-09-12T22:24:40.836Z,99328.23
2022-09-12T22:27:14.762Z,99327.38
2022-09-12T22:29:51.007Z,99327.38
2022-09-12T22:32:24.198Z,99323.63
2022-09-12T22:34:59.759Z,99327.37
2022-09-12T22:37:32.734Z,99323.81
2022-09-12T22:40:07.617Z,99322.62
2022-09-12T22:42:44.443Z,99320.93
2022-09-12T22:45:17.630Z,99337.58
2022-09-12T22:47:51.667Z,99326.20
2022-09-12T22:50:25.841Z,99333.50
2022-09-12T22:52:58.937Z,99328.92
2022-09-12T22:55:32.010Z,99321.26
2022-09-12T22:58:05.247Z,99326.20
2022-09-12T23:00:39.559Z,99317.34
2022-09-12T23:03:11.945Z,99319.39
2022-09-12T23:05:47.527Z,99317.86
2022-09-12T23:08:20.971Z,99318.89
2022-09-12T23:10:55.909Z,99311.39
2022-09-12T23:13:29.204Z,99317.69
2022-09-12T23:16:04.932Z,99314.80
2022-09-12T23:18:38.181Z,99314.95
2022-09-12T23:21:12.845Z,99314.79
2022-09-12T23:23:45.834Z,99313.81
2022-09-12T23:26:22.028Z,99311.75
2022-09-12T23:28:58.706Z,99312.08
2022-09-12T23:31:34.160Z,99316.69
2022-09-12T23:34:07.409Z,99317.88
2022-09-12T23:36:40.595Z,99318.20
2022-09-12T23:39:17.094Z,99312.09
2022-09-12T23:42:11.650Z,99314.63
2022-09-12T23:44:45.330Z,99306.61
2022-09-12T23:47:19.788Z,99309.86
2022-09-12T23:49:52.782Z,99303.53
2022-09-12T23:52:26.074Z,99307.27
2022-09-12T23:54:59.556Z,99309.00
2022-09-12T23:57:33.248Z,99303.20
